Time;durP1;ratioP1;P1;durP2;ratioP2;P2;SDS_P1;SDS_P2;PMS_P1;PMS_P2;Temp;Humidity;BMP_temperature;BMP_pressure;BME280_temperature;BME280_humidity;BME280_pressure;Samples;Min_cycle;Max_cycle;Signal;HPM_P1;HPM_P2
2022/07/05 00:02:01;;;;;;;7.93;1.58;;;;;;;16.47;61.11;101695.88;4990477;28;20022;-74
2022/07/05 00:04:27;;;;;;;8.55;2.03;;;;;;;16.47;61.46;101695.88;4987215;28;20080;-74
2022/07/05 00:09:36;;;;;;;5.22;1.95;;;;;;;16.58;61.14;101696.53;4989360;28;20018;-74
2022/07/05 00:12:02;;;;;;;4.90;1.70;;;;;;;16.48;61.89;101694.84;4990589;28;20551;-73
2022/07/05 00:14:27;;;;;;;7.88;2.20;;;;;;;16.23;62.31;101694.06;4990887;28;20029;-74
2022/07/05 00:16:52;;;;;;;15.57;2.33;;;;;;;16.48;61.81;101697.56;4985846;28;20022;-74
2022/07/05 00:19:18;;;;;;;9.02;2.20;;;;;;;16.39;62.02;101698.63;4986148;28;20078;-73
2022/07/05 00:21:43;;;;;;;8.20;1.98;;;;;;;16.49;61.68;101693.81;4984612;28;20046;-74
2022/07/05 00:24:09;;;;;;;7.32;2.22;;;;;;;16.59;61.35;101698.22;4981411;28;20034;-74
2022/07/05 00:26:34;;;;;;;7.32;2.15;;;;;;;16.44;61.49;101696.25;5003621;28;20526;-74
2022/07/05 00:28:59;;;;;;;9.30;1.90;;;;;;;16.35;61.61;101707.34;4988177;28;20101;-74
2022/07/05 00:31:25;;;;;;;4.28;1.73;;;;;;;16.36;61.64;101693.50;4992982;28;20080;-73
2022/07/05 00:33:50;;;;;;;5.63;1.92;;;;;;;16.26;61.80;101698.34;5004765;28;20030;-74
2022/07/05 00:36:15;;;;;;;10.13;1.90;;;;;;;16.27;61.80;101694.56;4982520;28;20045;-74
2022/07/05 00:38:41;;;;;;;6.50;1.73;;;;;;;16.25;61.88;101699.38;4981563;28;20042;-73
2022/07/05 00:41:06;;;;;;;7.03;2.05;;;;;;;16.29;61.62;101697.97;4983047;28;20026;-79
2022/07/05 00:43:32;;;;;;;7.43;1.80;;;;;;;16.29;61.60;101697.97;4996249;28;20022;-73
2022/07/05 00:45:58;;;;;;;8.75;2.25;;;;;;;16.30;61.43;101705.19;4979567;28;20022;-73
2022/07/05 00:48:23;;;;;;;10.50;2.40;;;;;;;15.97;62.73;101705.25;4987173;28;20081;-74
2022/07/05 00:50:50;;;;;;;7.10;1.63;;;;;;;16.17;61.89;101693.91;5005067;28;20048;-74
2022/07/05 00:53:15;;;;;;;7.90;2.13;;;;;;;16.14;62.28;101699.75;4986957;28;20021;-74
2022/07/05 00:55:43;;;;;;;7.50;2.17;;;;;;;15.97;62.95;101705.25;4985805;28;20036;-73
2022/07/05 00:58:09;;;;;;;5.40;1.90;;;;;;;16.10;62.27;101703.84;4994009;28;20029;-74
2022/07/05 01:00:34;;;;;;;10.70;2.13;;;;;;;16.07;62.74;101704.19;4982914;28;20027;-76
2022/07/05 01:03:00;;;;;;;8.68;2.25;;;;;;;16.10;62.60;101693.75;4981827;28;20030;-73
2022/07/05 01:05:27;;;;;;;8.57;2.70;;;;;;;15.97;62.98;101694.31;4988196;28;20026;-73
2022/07/05 01:07:52;;;;;;;11.77;2.22;;;;;;;15.97;63.18;101699.78;4991950;28;20029;-74
2022/07/05 01:10:19;;;;;;;6.28;2.25;;;;;;;15.99;63.17;101695.00;4979023;28;20015;-74
2022/07/05 01:12:45;;;;;;;6.15;2.50;;;;;;;16.01;63.12;101698.41;5005114;28;20026;-76
2022/07/05 01:15:10;;;;;;;5.78;1.98;;;;;;;15.89;63.80;101702.50;4986421;28;20028;-74
2022/07/05 01:17:36;;;;;;;7.47;2.00;;;;;;;15.98;63.54;101706.94;4985445;28;20026;-74
2022/07/05 01:20:06;;;;;;;9.35;2.20;;;;;;;15.89;63.52;101697.03;4988362;28;20045;-74
2022/07/05 01:22:54;;;;;;;8.00;1.98;;;;;;;15.90;64.05;101697.91;4989041;28;20490;-74
2022/07/05 01:25:25;;;;;;;8.48;1.95;;;;;;;15.63;64.96;101701.84;4986896;28;20110;-74
2022/07/05 01:27:51;;;;;;;7.22;2.45;;;;;;;15.60;65.01;101691.25;5003317;28;20022;-74
2022/07/05 01:30:17;;;;;;;11.05;2.38;;;;;;;15.53;65.41;101691.09;4989734;28;20022;-74
2022/07/05 01:32:43;;;;;;;10.38;2.78;;;;;;;15.61;65.34;101685.63;4990060;28;20017;-74
2022/07/05 01:35:10;;;;;;;9.23;2.25;;;;;;;15.73;65.14;101691.63;4982588;28;20441;-74
2022/07/05 01:37:36;;;;;;;10.15;2.75;;;;;;;15.64;65.47;101684.44;4975424;28;20026;-74
2022/07/05 01:40:02;;;;;;;7.47;2.13;;;;;;;15.63;65.35;101696.38;4981610;28;20015;-75
2022/07/05 01:42:28;;;;;;;9.32;2.33;;;;;;;15.63;65.99;101699.13;4986194;28;20091;-75
2022/07/05 01:44:53;;;;;;;9.35;2.50;;;;;;;15.73;65.48;101686.16;4989424;28;20559;-75
2022/07/05 01:47:19;;;;;;;8.30;3.00;;;;;;;15.55;65.92;101689.03;5005848;28;20028;-76
2022/07/05 01:49:47;;;;;;;12.27;2.20;;;;;;;15.50;66.23;101679.63;4983964;28;20053;-74
2022/07/05 01:52:15;;;;;;;12.15;2.50;;;;;;;15.51;66.58;101684.91;4985360;28;20041;-74
2022/07/05 01:54:41;;;;;;;14.05;2.40;;;;;;;15.55;66.14;101682.72;4973444;28;20119;-74
2022/07/05 01:57:07;;;;;;;8.43;2.70;;;;;;;15.39;66.91;101689.91;4975068;28;20112;-72
2022/07/05 01:59:34;;;;;;;14.40;2.97;;;;;;;15.55;66.42;101699.09;5005963;28;20443;-73
2022/07/05 02:02:00;;;;;;;6.63;2.53;;;;;;;15.52;66.67;101691.22;5002637;28;20021;-73
2022/07/05 02:04:26;;;;;;;14.95;2.40;;;;;;;15.35;67.27;101685.78;4986505;28;20249;-74
2022/07/05 02:06:51;;;;;;;9.35;2.58;;;;;;;15.40;67.32;101686.13;4973632;28;20053;-73
2022/07/05 02:09:17;;;;;;;15.55;3.13;;;;;;;15.36;67.44;101683.91;4990587;28;20426;-74
2022/07/05 02:11:42;;;;;;;11.68;2.80;;;;;;;15.34;67.56;101686.81;4985343;28;20014;-74
2022/07/05 02:14:08;;;;;;;11.40;3.15;;;;;;;15.21;68.07;101694.66;5004847;28;20014;-74
2022/07/05 02:16:33;;;;;;;8.25;2.50;;;;;;;15.38;67.75;101688.16;4972548;28;20030;-74
2022/07/05 02:18:59;;;;;;;11.05;2.10;;;;;;;15.50;67.50;101687.81;4980377;28;20507;-75
2022/07/05 02:21:24;;;;;;;5.47;2.38;;;;;;;15.40;67.75;101686.13;4990821;28;20109;-75
2022/07/05 02:23:50;;;;;;;13.43;2.97;;;;;;;15.03;68.91;101689.31;4989748;28;20031;-75
2022/07/05 02:26:15;;;;;;;15.38;3.22;;;;;;;14.98;68.92;101705.31;4970991;28;20121;-75
2022/07/05 02:29:37;;;;;;;6.57;2.38;;;;;;;14.86;69.72;101699.31;4997010;28;20022;-74
2022/07/05 02:32:03;;;;;;;16.60;2.97;;;;;;;14.96;69.40;101698.34;4988293;28;20048;-75
2022/07/05 02:34:28;;;;;;;9.93;3.15;;;;;;;14.77;69.67;101703.06;4981314;28;20471;-75
2022/07/05 02:36:53;;;;;;;11.07;2.72;;;;;;;14.97;68.95;101706.34;5002674;28;20089;-75
2022/07/05 02:39:19;;;;;;;9.40;3.38;;;;;;;14.98;69.05;101701.75;4982936;28;20018;-75
2022/07/05 02:41:44;;;;;;;8.10;2.97;;;;;;;14.91;69.15;101701.56;4974471;28;20032;-75
2022/07/05 02:44:09;;;;;;;9.45;3.03;;;;;;;14.83;69.33;101705.13;4980922;28;20104;-75
2022/07/05 02:46:35;;;;;;;11.90;3.47;;;;;;;15.03;68.99;101704.84;4978842;28;20037;-75
2022/07/05 02:49:00;;;;;;;9.77;2.92;;;;;;;14.87;69.33;101706.50;5005140;28;20057;-75
2022/07/05 02:51:25;;;;;;;18.65;3.53;;;;;;;14.98;68.91;101712.66;4976573;28;20040;-75
2022/07/05 02:53:51;;;;;;;8.65;3.10;;;;;;;14.70;69.80;101704.75;4989328;28;20028;-76
2022/07/05 02:56:16;;;;;;;8.93;2.97;;;;;;;14.95;68.86;101713.00;4975013;28;20160;-76
2022/07/05 02:58:42;;;;;;;10.25;3.08;;;;;;;14.98;68.84;101712.66;5004053;28;20395;-76
2022/07/05 03:01:07;;;;;;;11.30;3.47;;;;;;;14.71;69.74;101701.00;4980917;28;20157;-76
2022/07/05 03:03:32;;;;;;;14.20;4.15;;;;;;;14.74;69.64;101717.03;4983645;28;20126;-76
2022/07/05 03:05:58;;;;;;;12.65;4.05;;;;;;;14.64;70.29;101705.41;4972723;28;20034;-76
2022/07/05 03:08:23;;;;;;;9.25;3.80;;;;;;;14.71;69.92;101711.88;4986746;28;20041;-76
2022/07/05 03:10:49;;;;;;;14.25;4.45;;;;;;;14.55;70.17;101709.13;4999609;28;20030;-76
2022/07/05 03:13:14;;;;;;;6.82;3.65;;;;;;;14.77;69.77;101716.69;4994505;28;20033;-76
2022/07/05 03:15:40;;;;;;;10.68;4.15;;;;;;;14.70;70.22;101709.34;4983445;28;20525;-76
2022/07/05 03:18:05;;;;;;;10.02;4.28;;;;;;;14.56;70.69;101708.09;4987192;28;20028;-76
2022/07/05 03:20:30;;;;;;;10.85;3.75;;;;;;;14.80;69.49;101710.94;4974998;28;20036;-76
2022/07/05 03:22:56;;;;;;;9.40;3.58;;;;;;;14.79;69.67;101711.91;4986285;28;20038;-76
2022/07/05 03:25:21;;;;;;;12.70;3.28;;;;;;;14.93;69.27;101708.56;5001927;28;20081;-76
2022/07/05 03:27:46;;;;;;;10.05;3.83;;;;;;;14.99;69.17;101715.22;4995942;28;20030;-76
2022/07/05 03:30:12;;;;;;;15.80;3.80;;;;;;;14.92;69.41;101709.56;5004846;28;20117;-76
2022/07/05 03:32:38;;;;;;;13.15;3.75;;;;;;;14.98;69.25;101712.66;4999403;28;20034;-74
2022/07/05 03:35:04;;;;;;;11.15;3.72;;;;;;;15.07;69.09;101722.59;4986810;28;20459;-74
2022/07/05 03:37:29;;;;;;;18.40;3.85;;;;;;;15.10;68.77;101712.19;4993354;28;20029;-76
2022/07/05 03:39:54;;;;;;;7.95;3.30;;;;;;;14.89;69.66;101714.50;4988726;28;20034;-76
2022/07/05 03:42:20;;;;;;;23.05;4.63;;;;;;;14.81;69.70;101707.16;4983073;28;20022;-76
2022/07/05 03:44:45;;;;;;;12.75;3.72;;;;;;;14.99;69.12;101711.63;4983669;28;20026;-76
2022/07/05 03:47:11;;;;;;;12.82;3.83;;;;;;;14.84;69.56;101705.97;5003037;28;20034;-76
2022/07/05 03:49:36;;;;;;;9.00;4.22;;;;;;;14.83;70.04;101721.47;4991844;28;20037;-75
2022/07/05 03:52:01;;;;;;;11.82;3.95;;;;;;;14.91;69.64;101723.38;4976232;28;20036;-75
2022/07/05 03:54:27;;;;;;;9.32;4.00;;;;;;;14.89;69.52;101730.88;4974238;28;20085;-75
2022/07/05 03:56:52;;;;;;;13.27;3.70;;;;;;;14.96;69.36;101722.88;4990166;28;20034;-75
2022/07/05 03:59:17;;;;;;;14.70;4.35;;;;;;;15.07;69.01;101728.03;4979079;28;20105;-75
2022/07/05 04:01:43;;;;;;;17.30;4.32;;;;;;;15.15;68.68;101728.06;4991493;28;20041;-75
2022/07/05 04:04:08;;;;;;;8.30;3.75;;;;;;;15.18;69.13;101724.97;4981506;28;20021;-76
2022/07/05 04:06:37;;;;;;;14.35;4.00;;;;;;;15.26;68.71;101715.94;5001810;28;20030;-75
2022/07/05 04:09:03;;;;;;;13.95;3.13;;;;;;;15.26;68.56;101716.81;4987067;28;20499;-76
2022/07/05 04:11:28;;;;;;;11.02;3.53;;;;;;;15.21;68.83;101713.75;4997852;28;20033;-76
2022/07/05 04:13:54;;;;;;;10.98;3.42;;;;;;;15.23;68.90;101717.16;4982896;28;20375;-76
2022/07/05 04:16:28;;;;;;;12.48;3.35;;;;;;;15.25;68.93;101715.09;4981270;28;20029;-75
2022/07/05 04:19:05;;;;;;;9.30;3.40;;;;;;;15.03;69.72;101715.75;4990648;28;20026;-75
2022/07/05 04:21:31;;;;;;;9.02;2.67;;;;;;;15.06;69.49;101715.41;4987573;28;20083;-75
2022/07/05 04:23:56;;;;;;;18.05;4.30;;;;;;;15.01;69.73;101723.25;4987551;28;20121;-75
2022/07/05 04:26:22;;;;;;;8.82;3.85;;;;;;;15.20;69.17;101739.31;4997679;28;20125;-75
2022/07/05 04:28:47;;;;;;;10.88;3.53;;;;;;;15.27;68.73;101740.34;4984225;28;20014;-75
2022/07/05 04:31:13;;;;;;;17.30;4.00;;;;;;;15.30;68.74;101734.53;4983883;28;20018;-76
2022/07/05 04:33:38;;;;;;;14.50;3.92;;;;;;;15.35;68.30;101732.19;4986234;28;20111;-76
2022/07/05 04:36:04;;;;;;;11.45;4.03;;;;;;;15.29;68.27;101738.31;4984284;28;20053;-76
2022/07/05 04:38:29;;;;;;;11.95;3.50;;;;;;;15.27;67.40;101737.63;4985097;28;20018;-76
2022/07/05 04:40:54;;;;;;;16.67;4.68;;;;;;;15.33;66.97;101734.22;4983201;28;20025;-76
2022/07/05 04:43:20;;;;;;;14.70;3.15;;;;;;;15.39;67.50;101739.00;5001402;28;20422;-76
2022/07/05 04:45:45;;;;;;;14.50;3.45;;;;;;;15.61;65.64;101740.22;4978598;28;20022;-76
2022/07/05 04:48:10;;;;;;;10.13;3.38;;;;;;;15.25;67.02;101742.38;4983905;28;20081;-76
2022/07/05 04:50:36;;;;;;;8.30;2.80;;;;;;;15.32;67.23;101737.09;4971896;28;20068;-76
2022/07/05 04:53:01;;;;;;;10.00;2.72;;;;;;;15.48;66.34;101735.25;4997705;28;20022;-76
2022/07/05 04:55:27;;;;;;;9.93;3.53;;;;;;;15.53;66.22;101739.38;4978108;28;20022;-76
2022/07/05 04:57:52;;;;;;;11.55;2.80;;;;;;;15.64;65.66;101744.50;4980463;28;20076;-76
2022/07/05 05:00:17;;;;;;;12.73;3.22;;;;;;;15.57;65.51;101740.72;4986897;28;20037;-76
2022/07/05 05:02:43;;;;;;;5.88;2.45;;;;;;;15.36;66.33;101750.25;4978272;28;20029;-75
2022/07/05 05:05:09;;;;;;;11.75;2.88;;;;;;;15.16;66.42;101743.41;4972673;28;20018;-76
2022/07/05 05:07:36;;;;;;;7.93;2.97;;;;;;;15.40;66.08;101735.25;4975316;28;20077;-76
2022/07/05 05:10:02;;;;;;;11.30;3.03;;;;;;;15.41;66.15;101758.78;4972410;28;20041;-76
2022/07/05 05:12:27;;;;;;;10.55;2.75;;;;;;;15.58;65.44;101758.78;4977193;28;20478;-76
2022/07/05 05:14:52;;;;;;;8.98;2.83;;;;;;;15.45;65.75;101749.25;4976415;28;20022;-75
2022/07/05 05:17:18;;;;;;;11.63;2.60;;;;;;;15.32;66.58;101764.38;4982819;28;20029;-76
2022/07/05 05:19:44;;;;;;;9.07;3.10;;;;;;;15.40;66.37;101768.00;4983783;28;20025;-76
2022/07/05 05:22:10;;;;;;;11.70;2.63;;;;;;;15.69;65.63;101766.69;4996199;28;20068;-76
2022/07/05 05:24:35;;;;;;;20.40;4.47;;;;;;;15.50;66.12;101767.84;4986038;28;20161;-76
2022/07/05 05:27:01;;;;;;;12.68;2.47;;;;;;;15.72;65.46;101763.63;5000172;28;20047;-76
2022/07/05 05:29:27;;;;;;;10.88;2.30;;;;;;;16.08;64.17;101771.47;4991529;28;20018;-76
2022/07/05 05:31:53;;;;;;;7.20;2.60;;;;;;;16.11;63.90;101771.13;4976737;28;20045;-76
2022/07/05 05:34:18;;;;;;;7.80;2.88;;;;;;;15.79;64.33;101767.38;4980149;28;20113;-76
2022/07/05 05:36:44;;;;;;;11.88;2.45;;;;;;;15.87;63.89;101770.13;4982732;28;20136;-76
2022/07/05 05:39:09;;;;;;;5.57;2.70;;;;;;;15.82;64.34;101766.19;4998328;28;20076;-76
2022/07/05 05:41:35;;;;;;;10.50;2.42;;;;;;;15.74;63.92;101769.78;4985894;28;20026;-76
2022/07/05 05:44:01;;;;;;;9.38;2.50;;;;;;;15.85;64.14;101774.91;4978990;28;20479;-76
2022/07/05 05:46:26;;;;;;;10.27;2.42;;;;;;;15.79;64.29;101772.84;4991800;28;20022;-76
2022/07/05 05:48:51;;;;;;;4.78;2.30;;;;;;;15.99;63.76;101774.22;4982713;28;20021;-76
2022/07/05 05:51:17;;;;;;;8.32;2.35;;;;;;;16.11;63.21;101776.59;4984267;28;20085;-76
2022/07/05 05:53:45;;;;;;;13.18;2.63;;;;;;;16.30;62.59;101781.69;4977523;28;20026;-76
2022/07/05 05:56:10;;;;;;;11.70;2.30;;;;;;;16.30;61.69;101787.16;4982687;28;20013;-76
2022/07/05 05:58:35;;;;;;;9.73;2.22;;;;;;;16.21;61.90;101777.25;4986240;28;20022;-76
2022/07/05 06:01:01;;;;;;;18.02;3.03;;;;;;;16.23;61.17;101776.03;4986940;28;20511;-76
2022/07/05 06:03:27;;;;;;;10.50;2.40;;;;;;;16.33;61.22;101780.47;4999515;28;20380;-76
2022/07/05 06:05:53;;;;;;;12.73;3.15;;;;;;;16.37;60.43;101779.97;5006546;28;20018;-76
2022/07/05 06:08:18;;;;;;;12.93;2.40;;;;;;;16.21;60.90;101788.19;4989050;28;20045;-76
2022/07/05 06:10:44;;;;;;;7.28;2.00;;;;;;;16.29;61.29;101779.97;4975499;28;20014;-76
2022/07/05 06:13:11;;;;;;;12.05;2.50;;;;;;;16.32;60.82;101790.56;4986031;28;20014;-76
2022/07/05 06:15:38;;;;;;;6.75;2.25;;;;;;;16.10;61.61;101794.00;4976239;28;20118;-76
2022/07/05 06:18:04;;;;;;;9.98;2.72;;;;;;;16.40;60.76;101804.22;4987400;28;20023;-74
2022/07/05 06:20:32;;;;;;;10.02;1.92;;;;;;;16.27;61.28;101787.50;4985052;28;20253;-74
2022/07/05 06:22:59;;;;;;;5.75;2.28;;;;;;;16.62;60.14;101796.28;4998679;28;20034;-74
2022/07/05 06:25:25;;;;;;;8.02;2.13;;;;;;;16.76;59.36;101798.34;4984420;28;20057;-74
2022/07/05 06:28:03;;;;;;;12.95;2.38;;;;;;;16.62;60.05;101790.81;4979064;28;20018;-76
2022/07/05 06:30:30;;;;;;;6.22;2.33;;;;;;;16.58;60.19;101808.63;5000747;28;20022;-74
2022/07/05 06:32:55;;;;;;;11.65;2.20;;;;;;;16.51;60.79;101806.59;4986520;28;20032;-71
2022/07/05 06:35:21;;;;;;;12.27;2.05;;;;;;;16.41;61.12;101800.44;4985068;28;20022;-73
2022/07/05 06:37:53;;;;;;;9.80;2.20;;;;;;;16.74;60.00;101805.84;4968872;28;20113;-73
2022/07/05 06:40:18;;;;;;;;;;;;;;;16.61;60.62;101811.00;4968988;28;20054;-72
2022/07/05 06:42:44;;;;;;;6.75;1.80;;;;;;;16.61;60.72;101794.59;4969116;28;19960;-69
2022/07/05 06:45:09;;;;;;;11.70;2.22;;;;;;;17.12;59.65;101809.66;4968246;28;20022;-72
2022/07/05 06:47:36;;;;;;;18.38;2.10;;;;;;;17.22;59.16;101809.44;4968397;28;20026;-71
2022/07/05 06:50:05;;;;;;;9.23;1.90;;;;;;;17.22;58.83;101812.19;4969172;28;20011;-73
2022/07/05 06:52:32;;;;;;;11.93;1.90;;;;;;;17.46;58.01;101808.44;4968259;28;20033;-73
2022/07/05 06:55:01;;;;;;;12.73;2.33;;;;;;;17.32;58.45;101804.56;4971789;28;20046;-71
2022/07/05 06:57:27;;;;;;;11.90;2.10;;;;;;;17.40;56.29;101801.78;4969470;28;20092;-69
2022/07/05 06:59:52;;;;;;;9.80;1.80;;;;;;;17.31;58.10;101802.88;4985181;28;20097;-72
2022/07/05 07:02:21;;;;;;;7.68;1.67;;;;;;;17.55;56.74;101805.47;4982684;28;20050;-67
2022/07/05 07:04:47;;;;;;;5.93;1.80;;;;;;;17.60;57.30;101797.56;4977821;28;20499;-72
2022/07/05 07:09:58;;;;;;;6.45;2.00;;;;;;;17.35;58.36;101815.19;4984511;28;20045;-72
2022/07/05 07:12:24;;;;;;;9.18;1.92;;;;;;;17.52;58.27;101805.81;4966848;28;20058;-69
2022/07/05 07:14:49;;;;;;;4.85;1.40;;;;;;;17.48;57.50;101820.94;4968224;28;20061;-71
2022/07/05 07:17:14;;;;;;;8.43;1.75;;;;;;;17.38;58.49;101808.50;4966837;28;20023;-71
2022/07/05 07:19:40;;;;;;;12.63;2.50;;;;;;;17.50;58.05;101796.09;4968011;28;20031;-69
2022/07/05 07:22:05;;;;;;;10.27;1.70;;;;;;;17.93;57.19;101802.84;4984040;28;20022;-71
2022/07/05 07:24:30;;;;;;;10.07;1.63;;;;;;;17.93;55.76;101810.16;4965636;28;20030;-71
2022/07/05 07:27:06;;;;;;;9.35;1.65;;;;;;;18.31;55.18;101800.06;4984228;28;20026;-72
2022/07/05 07:29:32;;;;;;;14.38;1.63;;;;;;;18.64;53.75;101801.41;4967705;28;20019;-72
2022/07/05 07:31:59;;;;;;;10.43;1.63;;;;;;;18.71;53.18;101796.06;4966055;28;20522;-72
2022/07/05 07:34:25;;;;;;;7.78;0.98;;;;;;;18.32;49.83;101815.47;4984917;28;20030;-72
2022/07/05 07:36:52;;;;;;;9.40;1.20;;;;;;;18.81;50.05;101812.25;4966567;28;20030;-71
2022/07/05 07:39:18;;;;;;;11.98;1.80;;;;;;;18.56;51.02;101826.22;4965609;28;20480;-71
2022/07/05 07:41:43;;;;;;;3.95;1.35;;;;;;;18.64;52.32;101812.41;4967892;28;20122;-69
2022/07/05 07:44:09;;;;;;;6.72;1.50;;;;;;;18.78;53.02;101807.13;4965729;28;20081;-74
2022/07/05 07:46:35;;;;;;;8.52;1.55;;;;;;;18.55;52.01;101835.47;4965791;28;20044;-71
2022/07/05 07:49:00;;;;;;;9.52;1.45;;;;;;;17.91;52.28;101832.28;4967530;28;20057;-71
2022/07/05 07:51:27;;;;;;;6.93;1.52;;;;;;;18.05;53.49;101812.28;4976632;28;20061;-71
2022/07/05 07:53:52;;;;;;;9.73;1.77;;;;;;;18.11;53.48;101822.53;4986212;28;20037;-67
2022/07/05 07:56:18;;;;;;;11.82;1.45;;;;;;;17.97;52.89;101823.34;4984931;28;20069;-74
2022/07/05 07:58:43;;;;;;;6.07;1.17;;;;;;;18.07;52.98;101826.69;4981821;28;20025;-71
2022/07/05 08:01:10;;;;;;;7.53;1.67;;;;;;;18.37;51.63;101810.28;4967024;28;20018;-72
2022/07/05 08:03:40;;;;;;;4.57;1.15;;;;;;;18.54;50.78;101814.59;4964773;28;20026;-70
2022/07/05 08:06:07;;;;;;;9.73;1.50;;;;;;;18.77;50.55;101808.19;4965692;28;20077;-68
2022/07/05 08:08:37;;;;;;;10.02;1.40;;;;;;;18.49;51.45;101821.66;4966733;28;20054;-72
2022/07/05 08:11:02;;;;;;;9.18;1.00;;;;;;;19.06;46.82;101805.44;4965066;28;20018;-71
2022/07/05 08:13:28;;;;;;;4.88;1.40;;;;;;;18.92;48.71;101814.53;4965040;28;20037;-70
2022/07/05 08:15:53;;;;;;;3.03;1.13;;;;;;;18.97;46.54;101817.53;4966204;28;20022;-71
2022/07/05 08:23:46;;;;;;;1.35;0.70;;;;;;;18.89;40.57;101814.91;4983228;28;20022;-71
2022/07/05 08:26:12;;;;;;;6.57;1.10;;;;;;;19.13;41.02;101821.97;4981672;28;20426;-74
2022/07/05 08:28:37;;;;;;;3.92;0.65;;;;;;;19.89;39.74;101827.97;4965784;28;20042;-69
2022/07/05 08:31:03;;;;;;;5.05;0.95;;;;;;;19.34;41.17;101829.41;4981964;28;20022;-74
2022/07/05 08:33:28;;;;;;;2.33;0.75;;;;;;;20.03;38.34;101829.78;4964428;28;20038;-68
2022/07/05 08:35:54;;;;;;;1.60;0.50;;;;;;;19.68;36.64;101821.38;4965904;28;20106;-72
2022/07/05 08:38:19;;;;;;;2.95;0.63;;;;;;;20.15;36.58;101828.22;4980187;28;20090;-71
2022/07/05 08:40:49;;;;;;;2.13;0.85;;;;;;;20.10;39.04;101825.19;4964839;28;20081;-71
2022/07/05 08:43:15;;;;;;;2.40;0.80;;;;;;;20.95;36.08;101828.81;4964808;28;20032;-71
2022/07/05 08:45:43;;;;;;;5.18;0.85;;;;;;;20.82;37.51;101821.31;4964059;28;20031;-71
2022/07/05 08:48:09;;;;;;;2.90;1.00;;;;;;;20.18;38.51;101822.31;4981845;28;20026;-68
2022/07/05 08:50:36;;;;;;;6.18;0.98;;;;;;;19.03;38.88;101833.25;4982474;28;20015;-74
2022/07/05 08:53:04;;;;;;;3.25;1.20;;;;;;;19.57;39.44;101821.88;4963374;28;20033;-71
2022/07/05 08:55:31;;;;;;;2.40;1.00;;;;;;;19.96;39.00;101823.38;4964840;28;20018;-68
2022/07/05 08:57:57;;;;;;;5.57;1.20;;;;;;;19.87;39.28;101835.53;4965135;28;20081;-71
2022/07/05 09:00:25;;;;;;;7.55;1.30;;;;;;;19.67;39.93;101825.19;4963820;28;20527;-69
2022/07/05 09:02:52;;;;;;;6.18;0.93;;;;;;;20.02;39.83;101828.94;4965067;28;20357;-70
2022/07/05 09:05:18;;;;;;;2.83;0.80;;;;;;;20.31;38.96;101822.41;4964307;28;20029;-73
2022/07/05 09:07:52;;;;;;;2.85;0.63;;;;;;;19.99;39.10;101844.97;4964254;28;20391;-71
2022/07/05 09:10:21;;;;;;;2.60;0.80;;;;;;;20.09;39.38;101823.50;4964710;28;20025;-69
2022/07/05 09:12:47;;;;;;;6.50;1.50;;;;;;;20.43;39.25;101824.63;4964786;28;20018;-73
2022/07/05 09:15:12;;;;;;;2.45;0.85;;;;;;;19.59;40.24;101828.06;4965277;28;20037;-71
2022/07/05 09:17:44;;;;;;;8.48;2.00;;;;;;;19.42;41.11;101843.03;4983099;28;20069;-69
2022/07/05 09:20:15;;;;;;;13.10;1.50;;;;;;;19.43;41.94;101839.22;4983885;28;20034;-70
2022/07/05 09:22:52;;;;;;;3.28;0.77;;;;;;;19.50;40.22;101830.06;4983902;28;20018;-73
2022/07/05 09:25:21;;;;;;;1.75;0.77;;;;;;;19.81;40.25;101825.31;4983508;28;20076;-73
2022/07/05 09:27:52;;;;;;;2.50;0.90;;;;;;;20.12;40.14;101822.25;4977310;28;20030;-69
2022/07/05 09:30:41;;;;;;;2.00;0.68;;;;;;;20.33;37.98;101825.81;4980142;28;20030;-72
2022/07/05 09:33:11;;;;;;;7.78;0.75;;;;;;;19.43;40.54;101844.72;4963367;28;20557;-71
2022/07/05 09:35:39;;;;;;;7.22;0.80;;;;;;;19.49;41.40;101849.44;4963949;28;20037;-72
2022/07/05 09:38:06;;;;;;;2.88;0.90;;;;;;;19.31;42.14;101851.78;4963992;28;20026;-70
2022/07/05 09:40:47;;;;;;;7.35;0.98;;;;;;;19.31;42.97;101851.78;4980600;28;20117;-71
2022/07/05 09:43:14;;;;;;;6.20;1.17;;;;;;;19.32;43.36;101842.50;4963910;28;20030;-72
2022/07/05 09:45:40;;;;;;;3.05;1.00;;;;;;;19.40;43.05;101842.38;4964017;28;20483;-70
2022/07/05 09:48:07;;;;;;;3.58;0.77;;;;;;;19.35;42.14;101825.63;4963838;28;20109;-69
2022/07/05 09:50:36;;;;;;;1.30;0.63;;;;;;;19.57;41.36;101829.28;4963450;28;20121;-73
2022/07/05 09:53:05;;;;;;;3.17;1.05;;;;;;;19.71;41.94;101837.50;4963719;28;20076;-71
2022/07/05 09:55:31;;;;;;;4.57;1.25;;;;;;;19.17;42.87;101840.63;4962880;28;20018;-69
2022/07/05 09:57:56;;;;;;;4.30;1.55;;;;;;;19.64;42.14;101841.22;4963384;28;20035;-73
2022/07/05 10:00:22;;;;;;;7.68;0.80;;;;;;;19.85;41.59;101837.63;4963563;28;20074;-72
2022/07/05 10:02:51;;;;;;;6.55;1.20;;;;;;;19.69;41.71;101850.59;4969449;28;20529;-70
2022/07/05 10:05:21;;;;;;;4.53;1.35;;;;;;;20.29;39.81;101852.03;4982645;28;20037;-70
2022/07/05 10:07:52;;;;;;;8.02;1.27;;;;;;;20.55;37.98;101862.44;4979982;28;20050;-72
2022/07/05 10:10:25;;;;;;;3.60;0.90;;;;;;;20.13;38.25;101866.03;4967036;28;20038;-69
2022/07/05 10:12:53;;;;;;;6.28;0.80;;;;;;;20.45;36.26;101844.56;4963573;28;20030;-69
2022/07/05 10:15:27;;;;;;;3.65;0.90;;;;;;;20.54;35.98;101854.38;4963603;28;20023;-71
2022/07/05 10:18:10;;;;;;;2.95;0.75;;;;;;;21.13;35.51;101842.88;4963248;28;20029;-70
2022/07/05 10:20:43;;;;;;;3.13;1.00;;;;;;;21.58;35.60;101840.53;4963455;28;20105;-73
2022/07/05 10:23:13;;;;;;;3.97;0.70;;;;;;;21.42;36.40;101841.75;4962684;28;20033;-69
2022/07/05 10:25:41;;;;;;;3.58;0.88;;;;;;;20.86;37.71;101853.75;4963996;28;20113;-70
2022/07/05 10:28:08;;;;;;;4.93;1.13;;;;;;;20.76;39.05;101841.38;4964767;28;20026;-71
2022/07/05 10:30:34;;;;;;;6.65;1.48;;;;;;;21.34;39.26;101840.03;4967326;28;20555;-70
2022/07/05 10:33:05;;;;;;;3.40;1.15;;;;;;;21.47;38.35;101832.88;4967224;28;20052;-72
2022/07/05 10:35:31;;;;;;;2.40;0.80;;;;;;;21.80;36.11;101839.31;4983100;28;20471;-69
2022/07/05 10:37:58;;;;;;;1.23;0.70;;;;;;;21.35;36.56;101844.47;4969494;28;20027;-71
2022/07/05 10:40:24;;;;;;;1.50;0.55;;;;;;;21.35;35.69;101847.25;4986404;28;20108;-68
2022/07/05 10:42:58;;;;;;;2.38;1.08;;;;;;;21.55;35.83;101829.94;4985874;28;20026;-70
2022/07/05 10:45:25;;;;;;;4.63;1.13;;;;;;;22.06;34.65;101838.50;4966943;28;20153;-71
2022/07/05 10:48:09;;;;;;;3.97;1.05;;;;;;;21.66;35.46;101848.63;4967004;28;20026;-70
2022/07/05 10:50:53;;;;;;;5.45;1.05;;;;;;;20.85;37.40;101835.50;4983447;28;20050;-71
2022/07/05 10:53:48;;;;;;;4.35;0.75;;;;;;;21.13;36.04;101831.88;4982987;28;20109;-70
2022/07/05 10:56:14;;;;;;;2.50;0.70;;;;;;;21.01;36.00;101839.00;4966958;28;20019;-72
2022/07/05 10:58:44;;;;;;;5.00;0.75;;;;;;;21.56;35.45;101826.09;4966446;28;20094;-70
2022/07/05 11:01:19;;;;;;;4.35;1.00;;;;;;;21.38;35.90;101835.78;4984584;28;20090;-70
2022/07/05 11:04:06;;;;;;;5.47;0.90;;;;;;;21.40;35.98;101847.47;4985387;28;20042;-70
2022/07/05 11:06:49;;;;;;;3.95;0.80;;;;;;;21.64;36.42;101815.72;4983087;28;20475;-71
2022/07/05 11:09:19;;;;;;;3.40;0.75;;;;;;;21.98;36.20;101818.56;4965832;28;20034;-72
2022/07/05 11:11:47;;;;;;;3.33;1.00;;;;;;;21.35;37.57;101825.19;4966431;28;20035;-74
2022/07/05 11:14:19;;;;;;;5.68;1.38;;;;;;;20.86;38.13;101826.22;4966970;28;20038;-68
2022/07/05 11:16:44;;;;;;;8.00;1.35;;;;;;;21.04;38.38;101822.91;4983653;28;20522;-72
2022/07/05 11:19:17;;;;;;;1.75;0.80;;;;;;;21.08;37.75;101826.97;4972211;28;20038;-71
2022/07/05 11:22:05;;;;;;;4.00;0.80;;;;;;;20.71;38.48;101839.22;4983474;28;20029;-70
2022/07/05 11:24:33;;;;;;;4.13;1.20;;;;;;;20.91;38.08;101828.34;4984176;28;20025;-72
2022/07/05 11:27:00;;;;;;;5.47;1.13;;;;;;;21.09;37.89;101820.41;4986222;28;20121;-71
2022/07/05 11:29:52;;;;;;;3.30;0.80;;;;;;;21.04;37.74;101822.06;4985713;28;20041;-72
2022/07/05 11:32:19;;;;;;;3.47;0.85;;;;;;;21.41;36.66;101829.03;4985922;28;20026;-71
2022/07/05 11:34:48;;;;;;;1.38;0.70;;;;;;;21.32;35.71;101828.38;4985866;28;20021;-73